createdAt,value
2017-10-22T00:00:48.064Z,11.44
2017-10-22T00:03:13.898Z,11.41
2017-10-22T00:05:39.694Z,11.48
2017-10-22T00:08:05.513Z,11.41
2017-10-22T00:10:31.368Z,11.40
2017-10-22T00:12:57.174Z,11.34
2017-10-22T00:15:23.010Z,11.35
2017-10-22T00:17:48.809Z,11.27
2017-10-22T00:20:14.665Z,11.23
2017-10-22T00:22:40.499Z,11.25
2017-10-22T00:25:06.306Z,11.24
2017-10-22T00:27:32.188Z,11.26
2017-10-22T00:29:57.992Z,11.25
2017-10-22T00:32:23.834Z,11.26
2017-10-22T00:34:49.644Z,11.23
2017-10-22T00:37:15.457Z,11.33
2017-10-22T00:39:41.963Z,11.27
2017-10-22T00:42:07.808Z,11.27
2017-10-22T00:44:33.690Z,11.26
2017-10-22T00:46:59.501Z,11.24
2017-10-22T00:49:25.337Z,11.25
2017-10-22T00:51:51.175Z,11.24
2017-10-22T00:54:16.992Z,11.20
2017-10-22T00:56:42.968Z,11.19
2017-10-22T00:59:08.810Z,11.16
2017-10-22T01:01:34.626Z,11.13
2017-10-22T01:04:00.463Z,11.22
2017-10-22T01:06:26.309Z,11.24
2017-10-22T01:08:52.139Z,11.18
2017-10-22T01:11:18.057Z,11.16
2017-10-22T01:13:43.940Z,11.08
2017-10-22T01:16:09.751Z,11.06
2017-10-22T01:18:35.579Z,11.04
2017-10-22T01:21:01.428Z,10.97
2017-10-22T01:23:27.445Z,10.97
2017-10-22T01:25:53.293Z,10.98
2017-10-22T01:28:19.134Z,10.99
2017-10-22T01:30:44.994Z,11.01
2017-10-22T01:33:10.841Z,11.03
2017-10-22T01:35:36.721Z,11.12
2017-10-22T01:38:02.561Z,11.03
2017-10-22T01:40:28.417Z,11.12
2017-10-22T01:42:54.243Z,11.10
2017-10-22T01:45:20.082Z,11.14
2017-10-22T01:47:45.904Z,11.10
2017-10-22T01:50:11.762Z,11.09
2017-10-22T01:52:37.928Z,11.03
2017-10-22T01:55:04.065Z,11.00
2017-10-22T01:57:29.896Z,11.02
2017-10-22T01:59:55.713Z,11.05
2017-10-22T02:02:21.573Z,11.10
2017-10-22T02:04:47.391Z,11.04
2017-10-22T02:07:13.257Z,11.08
2017-10-22T02:09:39.111Z,11.03
2017-10-22T02:12:04.970Z,11.05
2017-10-22T02:14:30.833Z,11.04
2017-10-22T02:16:56.669Z,10.95
2017-10-22T02:19:23.817Z,11.00
2017-10-22T02:21:49.689Z,10.93
2017-10-22T02:24:15.539Z,10.92
2017-10-22T02:26:41.368Z,10.88
2017-10-22T02:29:07.192Z,10.86
2017-10-22T02:31:33.035Z,10.85
2017-10-22T02:33:58.874Z,10.89
2017-10-22T02:36:24.734Z,10.88
2017-10-22T02:38:50.561Z,10.90
2017-10-22T02:41:16.405Z,10.88
2017-10-22T02:43:42.301Z,10.94
2017-10-22T02:46:08.123Z,10.93
2017-10-22T02:48:33.950Z,10.99
2017-10-22T02:50:59.785Z,10.96
2017-10-22T02:53:25.643Z,11.00
2017-10-22T02:55:51.508Z,11.05
2017-10-22T02:58:17.355Z,11.02
2017-10-22T03:00:43.190Z,11.07
2017-10-22T03:03:09.021Z,11.01
2017-10-22T03:05:34.912Z,11.04
2017-10-22T03:08:00.751Z,11.08
2017-10-22T03:10:26.578Z,11.08
2017-10-22T03:12:52.397Z,11.03
2017-10-22T03:15:18.247Z,11.06
2017-10-22T03:17:44.067Z,11.10
2017-10-22T03:20:09.906Z,11.09
2017-10-22T03:22:35.750Z,11.02
2017-10-22T03:25:01.568Z,10.97
2017-10-22T03:27:27.386Z,10.90
2017-10-22T03:29:53.272Z,10.95
2017-10-22T03:32:19.117Z,10.80
2017-10-22T03:34:44.939Z,10.91
2017-10-22T03:37:10.749Z,10.83
2017-10-22T03:39:36.533Z,10.85
2017-10-22T03:42:02.352Z,10.85
2017-10-22T03:44:28.173Z,10.71
2017-10-22T03:46:53.979Z,10.69
2017-10-22T03:49:19.794Z,10.61
2017-10-22T03:51:45.653Z,10.58
2017-10-22T03:54:11.476Z,10.56
2017-10-22T03:56:37.293Z,10.49
2017-10-22T03:59:03.109Z,10.42
2017-10-22T04:01:28.937Z,10.32
2017-10-22T04:03:54.755Z,10.31
2017-10-22T04:06:20.566Z,10.30
2017-10-22T04:08:46.394Z,10.16
2017-10-22T04:11:12.169Z,-142.52
2017-10-22T04:13:38.012Z,-142.52
2017-10-22T04:16:03.835Z,-142.52
2017-10-22T04:18:29.623Z,-142.52
2017-10-22T04:20:55.433Z,-142.52
2017-10-22T04:23:21.226Z,-142.52
2017-10-22T04:25:47.045Z,-142.52
2017-10-22T04:28:12.855Z,-142.52
2017-10-22T04:30:38.688Z,-142.52
2017-10-22T04:33:04.529Z,-142.52
2017-10-22T04:35:30.343Z,-142.52
2017-10-22T04:37:56.165Z,-142.52
2017-10-22T04:40:21.961Z,-142.52
2017-10-22T04:42:47.768Z,-142.52
2017-10-22T04:45:13.563Z,-142.52
2017-10-22T04:47:39.354Z,-142.52
2017-10-22T04:50:05.162Z,-142.52
2017-10-22T04:52:30.968Z,-142.52
2017-10-22T04:54:56.781Z,-142.52
2017-10-22T04:57:22.577Z,-142.52
2017-10-22T04:59:48.397Z,-142.52
2017-10-22T05:02:14.194Z,-142.52
2017-10-22T05:04:40.057Z,-142.52
2017-10-22T05:07:05.916Z,-142.52
2017-10-22T05:09:31.737Z,-142.52
2017-10-22T05:11:57.553Z,-142.52
2017-10-22T05:14:23.372Z,-142.52
2017-10-22T05:16:49.314Z,-142.52
2017-10-22T05:19:15.117Z,-142.52
2017-10-22T05:21:40.907Z,-142.52
2017-10-22T05:24:06.750Z,-142.52
2017-10-22T05:26:32.566Z,-142.52
2017-10-22T05:28:58.383Z,-142.52
2017-10-22T05:31:24.212Z,-142.52
2017-10-22T05:33:50.065Z,-142.52
2017-10-22T05:36:15.890Z,-142.52
2017-10-22T05:38:41.711Z,-142.52
2017-10-22T05:41:07.758Z,-142.52
2017-10-22T05:43:33.592Z,-142.52
2017-10-22T05:45:59.413Z,-142.52
2017-10-22T05:48:25.324Z,-142.52
2017-10-22T05:50:51.116Z,-142.52
2017-10-22T05:53:16.961Z,-142.52
2017-10-22T05:55:42.770Z,-142.52
2017-10-22T05:58:08.570Z,-142.52
2017-10-22T06:00:34.421Z,-142.52
2017-10-22T06:03:00.241Z,-142.52
2017-10-22T06:05:26.052Z,-142.52
2017-10-22T06:07:51.931Z,-142.52
2017-10-22T06:10:17.763Z,-142.52
2017-10-22T06:12:43.557Z,-142.52
2017-10-22T06:15:09.357Z,-142.52
2017-10-22T06:17:40.114Z,-142.52
2017-10-22T06:20:05.963Z,-142.52
2017-10-22T06:22:32.102Z,-142.52
2017-10-22T06:24:57.910Z,-142.52
2017-10-22T06:27:23.747Z,-142.52
2017-10-22T06:29:49.567Z,-142.52
2017-10-22T06:32:15.373Z,-142.52
2017-10-22T06:34:41.199Z,-142.52
2017-10-22T06:37:07.069Z,-142.52
2017-10-22T06:39:32.931Z,-142.52
2017-10-22T06:41:58.772Z,-142.52
2017-10-22T06:44:24.597Z,-142.52
2017-10-22T06:46:50.802Z,-142.52
2017-10-22T06:49:16.779Z,-142.52
2017-10-22T06:51:42.602Z,-142.52
2017-10-22T06:54:08.462Z,-142.52
2017-10-22T06:56:34.306Z,-142.52
2017-10-22T06:59:00.184Z,-142.52
2017-10-22T07:01:26.015Z,-142.52
2017-10-22T07:03:51.870Z,-142.52
2017-10-22T07:06:17.796Z,-142.52
2017-10-22T07:08:43.669Z,-142.52
2017-10-22T07:11:09.540Z,-142.52
2017-10-22T07:13:35.437Z,-142.52
2017-10-22T07:16:01.344Z,-142.52
2017-10-22T07:18:27.184Z,-142.52
2017-10-22T07:20:53.013Z,-142.52
2017-10-22T07:23:18.952Z,-142.52
2017-10-22T07:25:45.371Z,-142.52
2017-10-22T07:28:11.273Z,-142.52
2017-10-22T07:30:37.086Z,-142.52
2017-10-22T07:33:03.280Z,-142.52
2017-10-22T07:35:29.145Z,-142.52
2017-10-22T07:37:55.025Z,-142.52
2017-10-22T07:40:20.939Z,-142.52
2017-10-22T07:42:46.821Z,-142.52
2017-10-22T07:45:12.670Z,-142.52
2017-10-22T07:47:38.569Z,-142.52
2017-10-22T07:50:04.986Z,-142.52
2017-10-22T07:52:30.861Z,-142.52
2017-10-22T07:54:56.722Z,-142.52
2017-10-22T07:57:22.574Z,-142.52
2017-10-22T07:59:48.406Z,-142.52
2017-10-22T08:02:19.220Z,-142.52
2017-10-22T08:04:45.447Z,-142.52
2017-10-22T08:07:11.460Z,-142.52
2017-10-22T08:09:37.378Z,-142.52
2017-10-22T08:12:04.298Z,-142.52
2017-10-22T08:14:30.178Z,-142.52
2017-10-22T08:16:56.342Z,-142.52
2017-10-22T08:19:22.247Z,-142.52
2017-10-22T08:21:48.172Z,-142.52
2017-10-22T08:24:15.829Z,-142.52
2017-10-22T08:26:41.652Z,-142.52
2017-10-22T08:29:07.518Z,-142.52
2017-10-22T08:31:33.549Z,-142.52
2017-10-22T08:33:59.507Z,-142.52
2017-10-22T08:36:25.331Z,-142.52
2017-10-22T08:38:51.804Z,-142.52
2017-10-22T08:41:18.246Z,-142.52
2017-10-22T08:43:44.351Z,-142.52
2017-10-22T08:46:13.052Z,-142.52
2017-10-22T08:48:38.893Z,-142.52
2017-10-22T08:51:04.843Z,-142.52
2017-10-22T08:53:30.781Z,-142.52
2017-10-22T08:55:58.100Z,-142.52
2017-10-22T08:58:24.094Z,-142.52
2017-10-22T09:00:50.217Z,-142.52
2017-10-22T09:03:16.134Z,-142.52
2017-10-22T09:05:42.102Z,-142.52
2017-10-22T09:08:07.931Z,-142.52
2017-10-22T09:10:33.809Z,-142.52
2017-10-22T09:12:59.797Z,-142.52
2017-10-22T09:15:25.737Z,-142.52
2017-10-22T09:17:51.958Z,-142.52
2017-10-22T09:20:17.803Z,-142.52
2017-10-22T09:22:43.917Z,-142.52
2017-10-22T09:25:10.257Z,-142.52
2017-10-22T09:27:36.129Z,-142.52
2017-10-22T09:30:01.960Z,-142.52
2017-10-22T09:32:27.865Z,-142.52
2017-10-22T09:34:53.665Z,-142.52
2017-10-22T09:37:19.467Z,-142.52
2017-10-22T09:39:45.347Z,-142.52
2017-10-22T09:42:11.198Z,-142.52
2017-10-22T09:44:37.090Z,-142.52
2017-10-22T09:47:02.989Z,-142.52
2017-10-22T09:49:29.794Z,-142.52
2017-10-22T09:51:55.691Z,-142.52
2017-10-22T09:54:21.544Z,-142.52
2017-10-22T09:56:47.459Z,-142.52
2017-10-22T09:59:13.354Z,-142.52
2017-10-22T10:01:39.304Z,-142.52
2017-10-22T10:04:05.180Z,-142.52
2017-10-22T10:06:31.065Z,-142.52
2017-10-22T10:08:57.023Z,-142.52
2017-10-22T10:11:22.909Z,-142.52
2017-10-22T10:13:48.799Z,-142.52
2017-10-22T10:16:14.694Z,-142.52
2017-10-22T10:18:40.652Z,-142.52
2017-10-22T10:21:06.534Z,-142.52
2017-10-22T10:23:32.445Z,-142.52
2017-10-22T10:25:58.325Z,-142.52
2017-10-22T10:28:24.197Z,-142.52
2017-10-22T10:30:50.107Z,-142.52
2017-10-22T10:33:16.031Z,-142.52
2017-10-22T10:35:41.975Z,-142.52
2017-10-22T10:38:07.984Z,-142.52
2017-10-22T10:40:33.852Z,-142.52
2017-10-22T10:42:59.738Z,-142.52
2017-10-22T10:45:25.590Z,-142.52
2017-10-22T10:47:51.459Z,-142.52
2017-10-22T10:50:17.365Z,-142.52
2017-10-22T10:52:43.180Z,-142.52
2017-10-22T10:55:09.037Z,-142.52
2017-10-22T10:57:34.893Z,-142.52
2017-10-22T11:00:00.758Z,-142.52
2017-10-22T11:02:26.801Z,-142.52
2017-10-22T11:04:52.699Z,-142.52
2017-10-22T11:07:18.637Z,-142.52
2017-10-22T11:09:44.484Z,-142.52
2017-10-22T11:12:10.849Z,-142.52
2017-10-22T11:14:36.709Z,-142.52
2017-10-22T11:17:02.617Z,-142.52
2017-10-22T11:19:28.477Z,-142.52
2017-10-22T11:21:54.305Z,-142.52
2017-10-22T11:24:20.138Z,-142.52
2017-10-22T11:26:46.005Z,-142.52
2017-10-22T11:29:11.892Z,-142.52
2017-10-22T11:31:37.758Z,-142.52
2017-10-22T11:34:03.615Z,-142.52
2017-10-22T11:36:29.442Z,-142.52
2017-10-22T11:38:55.242Z,-142.52
2017-10-22T11:41:21.059Z,-142.52
2017-10-22T11:43:46.885Z,-142.52
2017-10-22T11:46:12.691Z,-142.52
2017-10-22T11:48:38.569Z,-142.52
2017-10-22T11:51:04.471Z,-142.52
2017-10-22T11:53:30.293Z,-142.52
2017-10-22T11:55:56.097Z,-142.52
2017-10-22T11:58:21.923Z,-142.52
2017-10-22T12:00:47.722Z,-142.52
2017-10-22T12:03:13.539Z,-142.52
2017-10-22T12:05:39.384Z,-142.52
2017-10-22T12:08:05.209Z,-142.52
2017-10-22T12:10:31.058Z,-142.52
2017-10-22T12:12:56.939Z,-142.52
2017-10-22T12:15:22.799Z,-142.52
2017-10-22T12:17:48.697Z,-142.52
2017-10-22T12:20:14.560Z,-142.52
2017-10-22T12:22:40.391Z,-142.52
2017-10-22T12:25:06.223Z,-142.52
2017-10-22T12:27:32.108Z,-142.52
2017-10-22T12:29:57.971Z,-142.52
2017-10-22T12:32:23.810Z,-142.52
2017-10-22T12:34:49.681Z,-142.52
2017-10-22T12:37:15.510Z,-142.52
2017-10-22T12:39:41.334Z,-142.52
2017-10-22T12:42:07.131Z,-142.52
2017-10-22T12:44:32.965Z,-142.52
2017-10-22T12:46:58.789Z,-142.52
2017-10-22T12:49:24.617Z,-142.52
2017-10-22T12:51:50.445Z,-142.52
2017-10-22T12:54:16.245Z,-142.52
2017-10-22T12:56:42.102Z,-142.52
2017-10-22T12:59:07.986Z,-142.52
2017-10-22T13:01:33.843Z,-142.52
2017-10-22T13:03:59.658Z,-142.52
2017-10-22T13:06:25.473Z,-142.52
2017-10-22T13:08:51.313Z,-142.52
2017-10-22T13:11:17.239Z,-142.52
2017-10-22T13:13:43.042Z,-142.52
2017-10-22T13:16:09.236Z,-142.52
2017-10-22T13:18:35.050Z,-142.52
2017-10-22T13:21:01.002Z,-142.52
2017-10-22T13:23:26.862Z,-142.52
2017-10-22T13:25:52.713Z,-142.52
2017-10-22T13:28:18.598Z,-142.52
2017-10-22T13:30:44.447Z,-142.52
2017-10-22T13:33:10.264Z,-142.52
2017-10-22T13:35:36.145Z,-142.52
2017-10-22T13:38:01.979Z,-142.52
2017-10-22T13:40:27.879Z,-142.52
2017-10-22T13:42:53.747Z,-142.52
2017-10-22T13:45:19.569Z,-142.52
2017-10-22T13:47:45.363Z,-142.52
2017-10-22T13:50:11.191Z,-142.52
2017-10-22T13:52:37.002Z,-142.52
2017-10-22T13:55:02.881Z,-142.52
2017-10-22T13:57:28.717Z,-142.52
2017-10-22T13:59:54.579Z,-142.52
2017-10-22T14:02:20.401Z,-142.52
2017-10-22T14:04:46.206Z,-142.52
2017-10-22T14:07:12.022Z,-142.52
2017-10-22T14:09:37.852Z,-142.52
2017-10-22T14:12:04.085Z,-142.52
2017-10-22T14:14:29.997Z,-142.52
2017-10-22T14:16:55.842Z,-142.52
2017-10-22T14:19:21.687Z,-142.52
2017-10-22T14:21:47.516Z,-142.52
2017-10-22T14:24:13.406Z,-142.52
2017-10-22T14:26:39.245Z,-142.52
2017-10-22T14:29:05.093Z,-142.52
2017-10-22T14:31:30.944Z,-142.52
2017-10-22T14:33:56.790Z,-142.52
2017-10-22T14:36:57.652Z,11.30
2017-10-22T14:39:25.111Z,11.35
2017-10-22T14:41:52.524Z,11.33
2017-10-22T14:44:19.989Z,11.26
2017-10-22T14:46:47.399Z,11.14
2017-10-22T14:49:14.860Z,11.13
2017-10-22T14:51:42.254Z,11.18
2017-10-22T14:54:09.680Z,11.09
2017-10-22T14:56:37.198Z,11.13
2017-10-22T14:59:04.637Z,11.15
2017-10-22T15:01:32.097Z,11.13
2017-10-22T15:03:59.482Z,11.04
2017-10-22T15:06:26.917Z,11.02
2017-10-22T15:08:54.315Z,11.04
2017-10-22T15:11:21.782Z,10.99
2017-10-22T15:13:49.206Z,10.96
2017-10-22T15:16:16.613Z,10.92
2017-10-22T15:18:44.045Z,10.89
2017-10-22T15:21:11.491Z,10.78
2017-10-22T15:23:38.940Z,10.68
2017-10-22T15:26:06.403Z,10.72
2017-10-22T15:28:33.856Z,10.72
2017-10-22T15:31:01.268Z,10.75
2017-10-22T15:33:28.871Z,10.72
2017-10-22T15:35:56.386Z,10.68
2017-10-22T15:38:23.813Z,10.72
2017-10-22T15:40:51.238Z,10.72
2017-10-22T15:43:18.793Z,10.76
2017-10-22T15:45:46.262Z,10.80
2017-10-22T15:48:13.693Z,10.75
2017-10-22T15:50:41.174Z,10.77
2017-10-22T15:53:08.582Z,10.76
2017-10-22T15:55:35.994Z,10.79
2017-10-22T15:58:03.419Z,10.73
2017-10-22T16:00:30.881Z,10.65
2017-10-22T16:02:58.314Z,10.72
2017-10-22T16:05:25.825Z,10.73
2017-10-22T16:07:53.223Z,10.72
2017-10-22T16:10:20.646Z,10.75
2017-10-22T16:12:48.111Z,10.68
2017-10-22T16:15:15.546Z,10.70
2017-10-22T16:17:43.049Z,10.72
2017-10-22T16:20:10.491Z,10.72
2017-10-22T16:22:37.893Z,10.59
2017-10-22T16:25:05.337Z,10.62
2017-10-22T16:27:32.769Z,10.61
2017-10-22T16:30:00.186Z,10.49
2017-10-22T16:32:27.607Z,10.57
2017-10-22T16:34:55.116Z,10.48
2017-10-22T16:37:22.540Z,10.55
2017-10-22T16:39:49.991Z,10.50
2017-10-22T16:42:17.420Z,10.38
2017-10-22T16:44:44.816Z,10.35
2017-10-22T16:47:12.253Z,10.41
2017-10-22T16:49:39.644Z,10.42
2017-10-22T16:52:07.071Z,10.35
2017-10-22T16:54:34.485Z,10.41
2017-10-22T16:57:01.897Z,10.39
2017-10-22T16:59:29.405Z,10.27
2017-10-22T17:01:56.814Z,10.33
2017-10-22T17:04:24.241Z,10.38
2017-10-22T17:06:51.644Z,10.28
2017-10-22T17:09:19.149Z,10.33
2017-10-22T17:11:46.919Z,10.32
2017-10-22T17:14:14.644Z,10.43
2017-10-22T17:16:42.815Z,10.38
2017-10-22T17:19:10.305Z,10.37
2017-10-22T17:21:37.733Z,10.46
2017-10-22T17:24:05.204Z,10.51
2017-10-22T17:26:32.628Z,10.55
2017-10-22T17:29:00.063Z,10.56
2017-10-22T17:31:27.488Z,10.52
2017-10-22T17:33:54.923Z,10.45
2017-10-22T17:36:22.384Z,10.46
2017-10-22T17:38:49.779Z,10.48
2017-10-22T17:41:17.217Z,10.48
2017-10-22T17:43:54.581Z,10.49
2017-10-22T17:46:22.085Z,10.44
2017-10-22T17:48:49.483Z,10.40
2017-10-22T17:51:16.905Z,10.36
2017-10-22T17:53:44.421Z,10.39
2017-10-22T17:56:11.854Z,10.28
2017-10-22T17:58:39.257Z,10.32
2017-10-22T18:01:06.947Z,10.27
2017-10-22T18:03:34.352Z,10.25
2017-10-22T18:06:01.869Z,10.30
2017-10-22T18:08:29.412Z,10.33
2017-10-22T18:10:56.832Z,10.25
2017-10-22T18:13:24.231Z,10.11
2017-10-22T18:15:51.678Z,10.16
2017-10-22T18:18:19.114Z,10.26
2017-10-22T18:20:46.540Z,10.26
2017-10-22T18:23:13.996Z,10.23
2017-10-22T18:25:41.397Z,10.22
2017-10-22T18:28:08.805Z,10.22
2017-10-22T18:30:36.204Z,10.15
2017-10-22T18:33:03.616Z,10.20
2017-10-22T18:35:31.047Z,10.22
2017-10-22T18:37:58.425Z,10.22
2017-10-22T18:40:25.972Z,10.21
2017-10-22T18:42:53.378Z,10.20
2017-10-22T18:45:20.805Z,10.15
2017-10-22T18:47:48.278Z,10.00
2017-10-22T18:50:15.768Z,9.99
2017-10-22T18:52:43.187Z,9.92
2017-10-22T18:55:10.609Z,9.93
2017-10-22T18:57:38.032Z,9.85
2017-10-22T19:00:05.477Z,9.91
2017-10-22T19:02:32.876Z,9.90
2017-10-22T19:05:00.290Z,9.90
2017-10-22T19:07:27.711Z,9.86
2017-10-22T19:09:55.236Z,9.88
2017-10-22T19:12:22.844Z,9.85
2017-10-22T19:14:50.250Z,9.87
2017-10-22T19:17:18.219Z,9.86
2017-10-22T19:19:45.649Z,9.90
2017-10-22T19:22:13.083Z,9.79
2017-10-22T19:24:40.555Z,9.86
2017-10-22T19:27:07.969Z,9.87
2017-10-22T19:29:35.422Z,9.82
2017-10-22T19:32:02.822Z,9.86
2017-10-22T19:34:30.343Z,9.81
2017-10-22T19:36:57.827Z,9.79
2017-10-22T19:39:25.398Z,9.75
2017-10-22T19:41:52.851Z,9.72
2017-10-22T19:44:20.257Z,9.71
2017-10-22T19:46:47.729Z,9.66
2017-10-22T19:49:15.134Z,9.66
2017-10-22T19:51:42.597Z,9.62
2017-10-22T19:54:09.987Z,9.65
2017-10-22T19:56:37.401Z,9.59
2017-10-22T19:59:04.900Z,9.56
2017-10-22T20:01:32.306Z,9.53
2017-10-22T20:03:59.725Z,9.56
2017-10-22T20:06:27.159Z,9.51
2017-10-22T20:08:54.568Z,9.52
2017-10-22T20:11:22.153Z,9.53
2017-10-22T20:13:49.623Z,9.53
2017-10-22T20:16:17.114Z,9.49
2017-10-22T20:18:44.612Z,9.60
2017-10-22T20:21:13.076Z,9.62
2017-10-22T20:23:40.670Z,9.54
2017-10-22T20:26:08.074Z,9.65
2017-10-22T20:28:35.771Z,9.64
2017-10-22T20:31:03.226Z,9.67
2017-10-22T20:33:30.642Z,9.70
2017-10-22T20:35:58.052Z,9.67
2017-10-22T20:38:25.493Z,9.75
2017-10-22T20:40:52.913Z,9.78
2017-10-22T20:43:20.306Z,9.69
2017-10-22T20:45:47.733Z,9.63
2017-10-22T20:48:15.123Z,9.69
2017-10-22T20:50:42.853Z,9.70
2017-10-22T20:53:10.266Z,9.74
2017-10-22T20:55:37.707Z,9.69
2017-10-22T20:58:05.118Z,9.69
2017-10-22T21:00:32.525Z,9.63
2017-10-22T21:02:59.935Z,9.60
2017-10-22T21:05:27.340Z,9.63
2017-10-22T21:07:54.754Z,9.60
2017-10-22T21:10:22.155Z,9.67
2017-10-22T21:12:50.287Z,9.67
2017-10-22T21:15:17.688Z,9.69
2017-10-22T21:17:45.088Z,9.57
2017-10-22T21:20:12.519Z,9.60
2017-10-22T21:22:39.918Z,9.60
2017-10-22T21:25:07.322Z,9.62
2017-10-22T21:27:34.740Z,9.62
2017-10-22T21:30:02.138Z,9.63
2017-10-22T21:32:29.545Z,9.68
2017-10-22T21:34:56.953Z,9.61
2017-10-22T21:37:24.350Z,9.60
2017-10-22T21:39:51.757Z,9.60
2017-10-22T21:42:19.164Z,9.61
2017-10-22T21:44:46.762Z,9.66
2017-10-22T21:47:14.179Z,9.57
2017-10-22T21:49:41.580Z,9.54
2017-10-22T21:52:08.983Z,9.58
2017-10-22T21:54:36.422Z,9.54
2017-10-22T21:57:03.819Z,9.44
2017-10-22T21:59:31.672Z,9.45
2017-10-22T22:01:59.098Z,9.40
2017-10-22T22:04:26.551Z,9.43
2017-10-22T22:06:53.962Z,9.49
2017-10-22T22:09:21.376Z,9.61
2017-10-22T22:11:48.799Z,9.49
2017-10-22T22:14:16.198Z,9.57
2017-10-22T22:16:43.647Z,9.52
2017-10-22T22:19:11.029Z,9.40
2017-10-22T22:21:38.419Z,9.40
2017-10-22T22:24:05.835Z,9.34
2017-10-22T22:26:33.231Z,9.43
2017-10-22T22:29:00.673Z,9.44
2017-10-22T22:31:28.089Z,9.44
2017-10-22T22:33:55.521Z,9.44
2017-10-22T22:36:22.939Z,9.44
2017-10-22T22:38:50.330Z,9.39
2017-10-22T22:41:17.741Z,9.37
2017-10-22T22:43:45.161Z,9.42
2017-10-22T22:46:12.553Z,9.49
2017-10-22T22:48:40.029Z,9.53
2017-10-22T22:53:41.263Z,9.46
2017-10-22T22:56:08.671Z,9.36
2017-10-22T22:58:36.055Z,9.34
2017-10-22T23:01:03.483Z,9.37
2017-10-22T23:03:30.919Z,9.45
2017-10-22T23:05:58.343Z,9.47
2017-10-22T23:08:25.738Z,9.46
2017-10-22T23:10:53.143Z,9.45
2017-10-22T23:13:20.549Z,9.46
2017-10-22T23:15:47.949Z,9.41
2017-10-22T23:18:15.361Z,9.39
2017-10-22T23:20:42.778Z,9.42
2017-10-22T23:23:10.202Z,9.47
2017-10-22T23:25:37.610Z,9.44
2017-10-22T23:28:05.008Z,9.50
2017-10-22T23:30:32.420Z,9.45
2017-10-22T23:32:59.867Z,9.48
2017-10-22T23:35:27.271Z,9.49
2017-10-22T23:37:54.672Z,9.50
2017-10-22T23:40:22.070Z,9.50
2017-10-22T23:42:49.494Z,9.46
2017-10-22T23:45:16.908Z,9.46
2017-10-22T23:47:44.302Z,9.34
2017-10-22T23:50:11.725Z,9.40
2017-10-22T23:52:39.125Z,9.43
2017-10-22T23:55:06.540Z,9.45
2017-10-22T23:57:33.942Z,9.43
